createdAt,value
2018-10-17T00:01:50.907Z,23.53
2018-10-17T00:03:53.903Z,23.97
2018-10-17T00:05:56.903Z,24.10
2018-10-17T00:08:00.152Z,24.77
2018-10-17T00:10:04.951Z,24.63
2018-10-17T00:12:07.932Z,25.40
2018-10-17T00:14:10.966Z,24.53
2018-10-17T00:16:13.935Z,25.20
2018-10-17T00:18:16.971Z,27.60
2018-10-17T00:20:20.046Z,24.60
2018-10-17T00:22:23.067Z,27.73
2018-10-17T00:24:26.422Z,23.33
2018-10-17T00:26:29.453Z,23.70
2018-10-17T00:28:34.064Z,24.67
2018-10-17T00:30:37.095Z,24.90
2018-10-17T00:32:40.105Z,23.20
2018-10-17T00:34:43.162Z,24.53
2018-10-17T00:36:46.307Z,23.60
2018-10-17T00:38:49.344Z,22.60
2018-10-17T00:40:52.463Z,21.93
2018-10-17T00:42:56.465Z,24.57
2018-10-17T00:44:59.465Z,23.10
2018-10-17T00:47:04.557Z,24.50
2018-10-17T00:49:07.780Z,23.20
2018-10-17T00:51:10.733Z,25.30
2018-10-17T00:53:13.852Z,24.17
2018-10-17T00:55:16.852Z,24.87
2018-10-17T00:57:19.836Z,25.87
2018-10-17T00:59:22.824Z,24.90
2018-10-17T01:01:26.714Z,24.10
2018-10-17T01:03:29.705Z,26.10
2018-10-17T01:05:34.464Z,24.60
2018-10-17T01:07:37.808Z,22.03
2018-10-17T01:09:40.873Z,22.67
2018-10-17T01:11:43.962Z,22.83
2018-10-17T01:13:47.012Z,26.53
2018-10-17T01:15:50.053Z,26.23
2018-10-17T01:17:53.064Z,25.80
2018-10-17T01:19:56.385Z,27.00
2018-10-17T01:21:59.419Z,27.17
2018-10-17T01:24:02.483Z,25.83
2018-10-17T01:26:07.176Z,26.43
2018-10-17T01:28:10.192Z,26.90
2018-10-17T01:30:13.187Z,28.67
2018-10-17T01:32:16.205Z,24.87
2018-10-17T01:34:19.231Z,26.60
2018-10-17T01:36:22.232Z,25.23
2018-10-17T01:38:25.217Z,26.00
2018-10-17T01:40:28.244Z,25.30
2018-10-17T01:42:31.248Z,23.87
2018-10-17T01:44:35.650Z,26.30
2018-10-17T01:46:38.631Z,24.90
2018-10-17T01:48:41.577Z,25.43
2018-10-17T01:50:44.576Z,23.33
2018-10-17T01:52:47.555Z,23.70
2018-10-17T01:54:50.571Z,23.20
2018-10-17T01:56:53.571Z,22.27
2018-10-17T01:58:56.613Z,21.60
2018-10-17T02:00:59.660Z,21.93
2018-10-17T02:03:04.771Z,21.77
2018-10-17T02:05:07.976Z,22.87
2018-10-17T02:07:11.027Z,23.93
2018-10-17T02:09:14.012Z,24.87
2018-10-17T02:11:17.087Z,23.00
2018-10-17T02:13:21.023Z,26.30
2018-10-17T02:15:24.019Z,25.77
2018-10-17T02:17:27.031Z,27.77
2018-10-17T02:19:30.066Z,26.73
2018-10-17T02:21:34.435Z,25.70
2018-10-17T02:23:37.489Z,27.70
2018-10-17T02:25:40.491Z,27.40
2018-10-17T02:27:43.499Z,29.03
2018-10-17T02:29:46.969Z,27.40
2018-10-17T02:31:50.055Z,27.87
2018-10-17T02:33:53.067Z,26.63
2018-10-17T02:35:56.098Z,27.40
2018-10-17T02:37:59.144Z,24.63
2018-10-17T02:40:02.161Z,24.37
2018-10-17T02:42:07.473Z,24.23
2018-10-17T02:44:10.524Z,26.93
2018-10-17T02:46:13.548Z,26.30
2018-10-17T02:48:16.620Z,25.07
2018-10-17T02:50:19.636Z,23.57
2018-10-17T02:52:22.633Z,18.93
2018-10-17T02:54:26.083Z,20.27
2018-10-17T02:56:29.164Z,21.10
2018-10-17T02:58:32.220Z,21.20
2018-10-17T03:00:36.433Z,24.60
2018-10-17T03:02:39.450Z,27.80
2018-10-17T03:04:42.454Z,28.20
2018-10-17T03:06:45.504Z,26.73
2018-10-17T03:08:48.543Z,22.37
2018-10-17T03:10:52.010Z,27.03
2018-10-17T03:12:55.139Z,24.63
2018-10-17T03:14:58.174Z,25.07
2018-10-17T03:17:02.123Z,25.13
2018-10-17T03:19:06.560Z,26.93
2018-10-17T03:21:09.980Z,23.03
2018-10-17T03:23:13.152Z,23.30
2018-10-17T03:25:16.175Z,24.63
2018-10-17T03:27:19.151Z,24.40
2018-10-17T03:29:22.174Z,24.40
2018-10-17T03:31:25.311Z,24.30
2018-10-17T03:33:28.267Z,24.53
2018-10-17T03:35:31.296Z,23.77
2018-10-17T03:37:35.904Z,25.53
2018-10-17T03:39:38.897Z,24.40
2018-10-17T03:41:41.908Z,24.47
2018-10-17T03:43:44.891Z,23.97
2018-10-17T03:45:47.865Z,27.17
2018-10-17T03:47:50.905Z,27.63
2018-10-17T03:49:54.014Z,27.23
2018-10-17T03:51:56.920Z,29.20
2018-10-17T03:53:59.884Z,26.90
2018-10-17T03:56:04.338Z,27.30
2018-10-17T03:58:07.302Z,28.17
2018-10-17T04:00:10.353Z,28.27
2018-10-17T04:02:13.332Z,27.40
2018-10-17T04:04:16.340Z,27.87
2018-10-17T04:06:19.646Z,26.43
2018-10-17T04:08:22.624Z,24.90
2018-10-17T04:10:25.645Z,26.30
2018-10-17T04:12:28.664Z,23.77
2018-10-17T04:14:31.665Z,23.73
2018-10-17T04:16:35.997Z,24.40
2018-10-17T04:18:39.015Z,27.10
2018-10-17T04:20:42.020Z,22.53
2018-10-17T04:22:49.657Z,24.67
2018-10-17T04:24:52.818Z,26.17
2018-10-17T04:26:55.882Z,24.80
2018-10-17T04:28:59.032Z,25.60
2018-10-17T04:31:02.137Z,25.53
2018-10-17T04:33:06.466Z,26.07
2018-10-17T04:35:09.683Z,25.07
2018-10-17T04:37:12.813Z,23.27
2018-10-17T04:39:15.848Z,30.57
2018-10-17T04:41:19.084Z,26.77
2018-10-17T04:43:22.044Z,27.87
2018-10-17T04:45:25.085Z,33.60
2018-10-17T04:47:28.177Z,77.03
2018-10-17T04:49:31.237Z,97.97
2018-10-17T04:51:35.629Z,82.70
2018-10-17T04:53:38.928Z,54.20
2018-10-17T04:55:41.939Z,30.43
2018-10-17T04:57:44.981Z,26.33
2018-10-17T04:59:48.274Z,24.50
2018-10-17T05:01:51.318Z,25.10
2018-10-17T05:03:54.365Z,24.60
2018-10-17T05:05:57.407Z,24.17
2018-10-17T05:08:00.433Z,24.97
2018-10-17T05:10:04.892Z,23.40
2018-10-17T05:12:08.173Z,21.60
2018-10-17T05:14:11.244Z,20.73
2018-10-17T05:16:14.286Z,22.90
2018-10-17T05:18:17.345Z,26.00
2018-10-17T05:20:20.371Z,27.27
2018-10-17T05:22:23.421Z,26.90
2018-10-17T05:24:26.421Z,26.40
2018-10-17T05:26:29.681Z,26.30
2018-10-17T05:28:34.081Z,28.60
2018-10-17T05:30:37.115Z,27.90
2018-10-17T05:32:40.152Z,25.63
2018-10-17T05:34:43.277Z,29.60
2018-10-17T05:36:46.333Z,30.93
2018-10-17T05:38:49.412Z,29.63
2018-10-17T05:40:52.539Z,31.10
2018-10-17T05:42:55.571Z,30.97
2018-10-17T05:44:58.923Z,31.50
2018-10-17T05:47:02.005Z,28.80
2018-10-17T05:49:07.031Z,28.07
2018-10-17T05:51:10.286Z,28.33
2018-10-17T05:53:13.365Z,29.37
2018-10-17T05:55:16.573Z,26.60
2018-10-17T05:57:19.523Z,27.00
2018-10-17T05:59:22.581Z,26.70
2018-10-17T06:01:25.670Z,29.13
2018-10-17T06:03:28.654Z,28.97
2018-10-17T06:05:31.696Z,25.20
2018-10-17T06:07:36.131Z,24.13
2018-10-17T06:09:39.217Z,25.20
2018-10-17T06:11:42.369Z,25.60
2018-10-17T06:13:45.425Z,25.67
2018-10-17T06:15:48.466Z,24.93
2018-10-17T06:17:51.573Z,27.47
2018-10-17T06:19:54.619Z,27.63
2018-10-17T06:21:57.701Z,30.23
2018-10-17T06:24:00.797Z,29.27
2018-10-17T06:26:05.024Z,28.77
2018-10-17T06:28:08.411Z,27.90
2018-10-17T06:30:11.502Z,27.03
2018-10-17T06:32:14.525Z,25.00
2018-10-17T06:34:17.651Z,23.10
2018-10-17T06:36:20.628Z,24.90
2018-10-17T06:38:23.672Z,24.50
2018-10-17T06:40:27.009Z,23.37
2018-10-17T06:42:30.075Z,23.73
2018-10-17T06:44:34.492Z,26.20
2018-10-17T06:46:37.801Z,26.60
2018-10-17T06:48:40.857Z,27.37
2018-10-17T06:50:43.953Z,30.63
2018-10-17T06:52:47.073Z,29.10
2018-10-17T06:54:50.183Z,29.53
2018-10-17T06:56:53.221Z,27.53
2018-10-17T06:58:56.510Z,28.20
2018-10-17T07:00:59.597Z,27.83
2018-10-17T07:03:03.849Z,31.00
2018-10-17T07:05:07.899Z,29.13
2018-10-17T07:07:11.229Z,33.47
2018-10-17T07:09:14.178Z,32.53
2018-10-17T07:11:17.619Z,34.57
2018-10-17T07:13:20.932Z,33.97
2018-10-17T07:15:23.941Z,36.07
2018-10-17T07:17:26.936Z,36.57
2018-10-17T07:19:30.001Z,39.30
2018-10-17T07:21:34.359Z,37.90
2018-10-17T07:23:37.400Z,37.43
2018-10-17T07:25:40.505Z,36.60
2018-10-17T07:27:43.558Z,38.97
2018-10-17T07:29:46.771Z,39.23
2018-10-17T07:31:49.746Z,41.63
2018-10-17T07:33:52.778Z,40.27
2018-10-17T07:35:55.899Z,40.63
2018-10-17T07:37:58.920Z,45.17
2018-10-17T07:40:02.234Z,43.80
2018-10-17T07:42:07.164Z,43.50
2018-10-17T07:44:10.203Z,42.20
2018-10-17T07:46:13.319Z,43.60
2018-10-17T07:48:16.591Z,41.03
2018-10-17T07:50:19.641Z,43.90
2018-10-17T07:52:22.693Z,43.30
2018-10-17T07:54:25.760Z,45.80
2018-10-17T07:56:28.820Z,44.20
2018-10-17T07:58:32.125Z,42.50
2018-10-17T08:00:36.414Z,40.33
2018-10-17T08:02:39.551Z,42.40
2018-10-17T08:04:42.690Z,42.63
2018-10-17T08:06:45.789Z,42.63
2018-10-17T08:08:48.784Z,43.20
2018-10-17T08:10:51.894Z,45.30
2018-10-17T08:12:54.963Z,42.03
2018-10-17T08:14:58.030Z,42.50
2018-10-17T08:17:01.110Z,43.37
2018-10-17T08:19:06.177Z,39.50
2018-10-17T08:21:09.219Z,41.27
2018-10-17T08:23:12.373Z,43.40
2018-10-17T08:25:15.420Z,42.73
2018-10-17T08:27:18.475Z,41.63
2018-10-17T08:29:22.011Z,40.43
2018-10-17T08:31:25.484Z,42.87
2018-10-17T08:33:28.501Z,45.63
2018-10-17T08:35:31.689Z,45.70
2018-10-17T08:37:36.771Z,44.03
2018-10-17T08:39:39.511Z,42.07
2018-10-17T08:41:42.581Z,42.67
2018-10-17T08:43:45.603Z,42.23
2018-10-17T08:45:48.745Z,42.17
2018-10-17T08:47:51.833Z,44.37
2018-10-17T08:49:54.900Z,44.77
2018-10-17T08:51:57.934Z,45.40
2018-10-17T08:54:00.984Z,43.40
2018-10-17T08:56:04.693Z,46.50
2018-10-17T08:58:07.695Z,46.60
2018-10-17T09:00:10.789Z,44.87
2018-10-17T09:02:13.947Z,44.50
2018-10-17T09:04:17.001Z,43.27
2018-10-17T09:06:20.174Z,44.03
2018-10-17T09:08:23.271Z,43.63
2018-10-17T09:10:26.223Z,44.43
2018-10-17T09:12:29.305Z,45.10
2018-10-17T09:14:32.390Z,44.33
2018-10-17T09:16:35.494Z,43.30
2018-10-17T09:18:38.547Z,43.20
2018-10-17T09:20:41.788Z,45.17
2018-10-17T09:22:44.685Z,46.17
2018-10-17T09:24:47.753Z,42.80
2018-10-17T09:26:50.791Z,44.07
2018-10-17T09:28:54.237Z,42.27
2018-10-17T09:30:57.284Z,42.50
2018-10-17T09:33:00.384Z,45.47
2018-10-17T09:35:05.571Z,45.07
2018-10-17T09:37:08.569Z,44.53
2018-10-17T09:39:11.950Z,45.23
2018-10-17T09:41:15.009Z,48.80
2018-10-17T09:43:18.097Z,46.93
2018-10-17T09:45:21.016Z,49.23
2018-10-17T09:47:24.063Z,49.30
2018-10-17T09:49:27.043Z,48.97
2018-10-17T09:51:30.049Z,47.17
2018-10-17T09:53:34.392Z,44.70
2018-10-17T09:55:37.428Z,47.87
2018-10-17T09:57:40.439Z,43.40
2018-10-17T09:59:43.476Z,41.97
2018-10-17T10:01:50.061Z,44.00
2018-10-17T10:03:53.245Z,42.77
2018-10-17T10:05:56.412Z,41.77
2018-10-17T10:07:59.365Z,43.53
2018-10-17T10:10:02.514Z,42.17
2018-10-17T10:12:06.960Z,42.37
2018-10-17T10:14:09.923Z,45.50
2018-10-17T10:16:13.067Z,45.20
2018-10-17T10:18:16.013Z,44.30
2018-10-17T10:20:19.036Z,42.10
2018-10-17T10:22:22.337Z,42.70
2018-10-17T10:24:25.348Z,40.47
2018-10-17T10:26:28.381Z,40.33
2018-10-17T10:28:31.524Z,37.70
2018-10-17T10:30:35.896Z,38.33
2018-10-17T10:32:38.872Z,39.23
2018-10-17T10:34:41.901Z,36.73
2018-10-17T10:36:44.928Z,39.50
2018-10-17T10:38:47.945Z,38.60
2018-10-17T10:40:50.985Z,36.27
2018-10-17T10:42:53.981Z,40.30
2018-10-17T10:44:57.079Z,40.73
2018-10-17T10:47:00.043Z,40.60
2018-10-17T10:49:03.668Z,41.93
2018-10-17T10:51:07.239Z,40.50
2018-10-17T10:53:10.805Z,41.63
2018-10-17T10:55:13.812Z,39.10
2018-10-17T10:57:16.870Z,41.90
2018-10-17T10:59:19.990Z,41.70
2018-10-17T11:01:22.968Z,40.60
2018-10-17T11:03:25.959Z,41.63
2018-10-17T11:05:29.124Z,39.90
2018-10-17T11:07:32.040Z,40.60
2018-10-17T11:09:36.341Z,42.90
2018-10-17T11:11:39.571Z,41.70
2018-10-17T11:13:42.604Z,41.77
2018-10-17T11:15:45.951Z,38.13
2018-10-17T11:17:48.949Z,38.67
2018-10-17T11:19:51.986Z,41.30
2018-10-17T11:21:55.075Z,37.27
2018-10-17T11:23:58.017Z,38.73
2018-10-17T11:26:01.074Z,39.20
2018-10-17T11:28:05.840Z,37.67
2018-10-17T11:30:10.276Z,42.40
2018-10-17T11:32:13.275Z,40.77
2018-10-17T11:34:16.336Z,39.57
2018-10-17T11:36:19.321Z,39.23
2018-10-17T11:38:22.310Z,40.30
2018-10-17T11:40:25.361Z,37.77
2018-10-17T11:42:28.388Z,37.67
2018-10-17T11:44:31.373Z,36.10
2018-10-17T11:46:35.955Z,35.60
2018-10-17T11:48:38.924Z,34.97
2018-10-17T11:50:41.941Z,36.60
2018-10-17T11:52:44.963Z,35.00
2018-10-17T11:54:47.981Z,36.40
2018-10-17T11:56:51.103Z,35.20
2018-10-17T11:58:54.471Z,38.03
2018-10-17T12:00:57.442Z,35.60
2018-10-17T12:03:00.502Z,33.10
2018-10-17T12:05:05.135Z,34.73
2018-10-17T12:07:07.784Z,35.57
2018-10-17T12:09:10.824Z,35.70
2018-10-17T12:11:13.841Z,33.13
2018-10-17T12:13:16.814Z,34.70
2018-10-17T12:15:19.911Z,35.00
2018-10-17T12:17:22.869Z,37.37
2018-10-17T12:19:25.924Z,34.47
2018-10-17T12:21:28.937Z,32.30
2018-10-17T12:23:31.956Z,32.37
2018-10-17T12:25:36.166Z,32.97
2018-10-17T12:27:39.283Z,35.90
2018-10-17T12:29:42.308Z,35.53
2018-10-17T12:31:45.327Z,35.87
2018-10-17T12:33:48.368Z,34.10
2018-10-17T12:35:51.487Z,33.90
2018-10-17T12:37:54.472Z,34.07
2018-10-17T12:39:57.592Z,32.07
2018-10-17T12:42:00.479Z,32.77
2018-10-17T12:44:05.567Z,33.17
2018-10-17T12:46:08.623Z,33.20
2018-10-17T12:48:11.649Z,34.77
2018-10-17T12:50:14.743Z,34.73
2018-10-17T12:52:17.811Z,34.43
2018-10-17T12:54:20.770Z,40.53
2018-10-17T12:56:23.789Z,33.90
2018-10-17T12:58:26.908Z,33.57
2018-10-17T13:00:30.298Z,35.23
2018-10-17T13:02:34.600Z,32.60
2018-10-17T13:04:37.901Z,33.73
2018-10-17T13:06:41.170Z,33.33
2018-10-17T13:08:44.311Z,33.03
2018-10-17T13:10:47.269Z,31.53
2018-10-17T13:12:50.553Z,31.63
2018-10-17T13:14:53.593Z,31.67
2018-10-17T13:16:56.646Z,30.70
2018-10-17T13:18:59.683Z,26.73
2018-10-17T13:21:04.091Z,27.87
2018-10-17T13:23:07.216Z,27.23
2018-10-17T13:25:10.285Z,28.20
2018-10-17T13:27:13.214Z,29.80
2018-10-17T13:29:16.378Z,28.40
2018-10-17T13:31:19.365Z,31.63
2018-10-17T13:33:22.385Z,29.00
2018-10-17T13:35:25.416Z,29.10
2018-10-17T13:37:28.427Z,27.77
2018-10-17T13:39:31.705Z,28.50
2018-10-17T13:41:36.226Z,28.73
2018-10-17T13:43:39.261Z,29.30
2018-10-17T13:45:42.357Z,29.37
2018-10-17T13:47:45.385Z,28.30
2018-10-17T13:49:48.693Z,29.80
2018-10-17T13:51:51.600Z,30.67
2018-10-17T13:53:58.681Z,29.07
2018-10-17T13:56:01.727Z,29.47
2018-10-17T13:58:07.073Z,31.60
2018-10-17T14:00:11.569Z,31.50
2018-10-17T14:02:14.585Z,32.70
2018-10-17T14:04:18.137Z,31.90
2018-10-17T14:06:21.338Z,32.87
2018-10-17T14:08:24.385Z,31.40
2018-10-17T14:10:27.439Z,32.80
2018-10-17T14:12:30.511Z,32.40
2018-10-17T14:14:34.904Z,32.93
2018-10-17T14:16:37.923Z,33.03
2018-10-17T14:18:40.945Z,31.63
2018-10-17T14:20:43.929Z,30.40
2018-10-17T14:22:46.973Z,30.63
2018-10-17T14:24:50.021Z,30.93
2018-10-17T14:26:53.141Z,30.30
2018-10-17T14:28:56.285Z,29.97
2018-10-17T14:30:59.381Z,31.43
2018-10-17T14:33:02.436Z,26.90
2018-10-17T14:35:10.074Z,27.60
2018-10-17T14:37:13.237Z,29.17
2018-10-17T14:39:16.270Z,27.60
2018-10-17T14:41:19.379Z,29.60
2018-10-17T14:43:22.361Z,26.50
2018-10-17T14:45:25.423Z,31.20
2018-10-17T14:47:28.467Z,31.50
2018-10-17T14:49:31.486Z,27.70
2018-10-17T14:51:35.573Z,31.90
2018-10-17T14:53:38.777Z,29.67
2018-10-17T14:55:41.833Z,31.27
2018-10-17T14:57:44.804Z,33.30
2018-10-17T14:59:47.935Z,31.03
2018-10-17T15:01:51.402Z,32.07
2018-10-17T15:03:54.417Z,32.87
2018-10-17T15:05:57.980Z,35.87
2018-10-17T15:08:01.019Z,35.40
2018-10-17T15:10:05.580Z,36.40
2018-10-17T15:12:10.289Z,35.73
2018-10-17T15:14:13.399Z,34.93
2018-10-17T15:16:16.386Z,36.40
2018-10-17T15:18:19.457Z,34.77
2018-10-17T15:20:22.512Z,46.67
2018-10-17T15:22:25.609Z,66.70
2018-10-17T15:24:28.682Z,54.33
2018-10-17T15:26:31.736Z,40.50
2018-10-17T15:28:36.198Z,40.60
2018-10-17T15:30:39.231Z,36.57
2018-10-17T15:32:42.291Z,39.27
2018-10-17T15:34:45.420Z,37.90
2018-10-17T15:36:48.519Z,42.37
2018-10-17T15:38:51.665Z,36.80
2018-10-17T15:40:54.691Z,35.67
2018-10-17T15:42:57.915Z,33.53
2018-10-17T15:45:01.533Z,34.17
2018-10-17T15:47:05.847Z,33.30
2018-10-17T15:49:08.906Z,32.27
2018-10-17T15:51:12.004Z,33.10
2018-10-17T15:53:15.175Z,32.33
2018-10-17T15:55:18.066Z,32.20
2018-10-17T15:57:21.056Z,33.00
2018-10-17T15:59:24.077Z,32.77
2018-10-17T16:01:27.322Z,30.33
2018-10-17T16:03:30.401Z,30.93
2018-10-17T16:05:34.878Z,31.00
2018-10-17T16:07:37.906Z,32.40
2018-10-17T16:09:40.926Z,31.90
2018-10-17T16:11:44.461Z,34.20
2018-10-17T16:13:47.352Z,32.17
2018-10-17T16:15:50.470Z,32.53
2018-10-17T16:17:53.671Z,31.20
2018-10-17T16:19:56.699Z,30.60
2018-10-17T16:21:59.640Z,29.73
2018-10-17T16:24:04.994Z,30.90
2018-10-17T16:26:07.998Z,32.27
2018-10-17T16:28:10.955Z,30.93
2018-10-17T16:30:14.015Z,33.43
2018-10-17T16:32:17.082Z,30.97
2018-10-17T16:34:20.076Z,31.80
2018-10-17T16:36:23.140Z,35.33
2018-10-17T16:38:26.161Z,34.90
2018-10-17T16:40:29.125Z,33.80
2018-10-17T16:42:32.474Z,36.00
2018-10-17T16:44:36.713Z,36.70
2018-10-17T16:46:39.764Z,33.40
2018-10-17T16:48:43.161Z,35.20
2018-10-17T16:50:46.223Z,31.87
2018-10-17T16:52:49.159Z,34.73
2018-10-17T16:54:52.248Z,37.10
2018-10-17T16:56:55.264Z,39.00
2018-10-17T16:58:58.277Z,42.67
2018-10-17T17:01:01.306Z,48.07
2018-10-17T17:03:06.073Z,45.83
2018-10-17T17:05:11.489Z,47.87
2018-10-17T17:07:14.509Z,49.23
2018-10-17T17:09:17.679Z,46.60
2018-10-17T17:11:20.571Z,44.80
2018-10-17T17:13:23.589Z,44.00
2018-10-17T17:15:26.560Z,48.27
2018-10-17T17:17:29.545Z,48.47
2018-10-17T17:19:33.760Z,51.27
2018-10-17T17:21:36.811Z,50.03
2018-10-17T17:23:39.789Z,47.20
2018-10-17T17:25:42.814Z,51.43
2018-10-17T17:27:45.783Z,45.80
2018-10-17T17:29:49.132Z,45.30
2018-10-17T17:31:52.158Z,43.63
2018-10-17T17:33:55.145Z,47.17
2018-10-17T17:35:58.168Z,45.90
2018-10-17T17:38:01.169Z,46.37
2018-10-17T17:40:06.023Z,43.63
2018-10-17T17:42:09.065Z,43.33
2018-10-17T17:44:12.037Z,44.57
2018-10-17T17:46:15.143Z,44.50
2018-10-17T17:48:18.111Z,45.17
2018-10-17T17:50:21.084Z,97.73
2018-10-17T17:52:24.121Z,118.13
2018-10-17T17:54:27.075Z,48.63
2018-10-17T17:56:30.057Z,52.40
2018-10-17T17:58:34.454Z,48.60
2018-10-17T18:00:37.368Z,41.13
2018-10-17T18:02:40.737Z,38.93
2018-10-17T18:04:43.752Z,40.07
2018-10-17T18:06:46.771Z,36.20
2018-10-17T18:08:49.803Z,38.80
2018-10-17T18:10:52.796Z,34.77
2018-10-17T18:12:55.801Z,35.40
2018-10-17T18:14:58.823Z,32.73
2018-10-17T18:17:02.109Z,35.40
2018-10-17T18:19:06.985Z,37.13
2018-10-17T18:21:10.001Z,31.90
2018-10-17T18:23:13.065Z,32.50
2018-10-17T18:25:16.066Z,29.27
2018-10-17T18:27:19.090Z,34.63
2018-10-17T18:29:22.077Z,32.40
2018-10-17T18:31:25.344Z,31.83
2018-10-17T18:33:28.323Z,31.93
2018-10-17T18:35:31.337Z,33.03
2018-10-17T18:37:36.253Z,32.70
2018-10-17T18:39:39.284Z,33.90
2018-10-17T18:41:42.301Z,33.77
2018-10-17T18:43:45.270Z,34.50
2018-10-17T18:45:48.704Z,35.73
2018-10-17T18:47:51.769Z,37.53
2018-10-17T18:49:54.722Z,36.00
2018-10-17T18:51:58.014Z,36.60
2018-10-17T18:54:00.988Z,36.57
2018-10-17T18:56:05.654Z,37.13
2018-10-17T18:58:08.901Z,42.27
2018-10-17T19:00:11.877Z,43.90
2018-10-17T19:02:14.856Z,42.00
2018-10-17T19:04:18.074Z,40.80
2018-10-17T19:06:21.083Z,38.87
2018-10-17T19:08:24.073Z,37.23
2018-10-17T19:10:27.087Z,36.60
2018-10-17T19:12:30.092Z,35.70
2018-10-17T19:14:34.581Z,37.20
2018-10-17T19:16:37.615Z,36.27
2018-10-17T19:18:40.604Z,37.70
2018-10-17T19:20:43.611Z,37.23
2018-10-17T19:22:46.616Z,34.97
2018-10-17T19:24:49.643Z,36.37
2018-10-17T19:26:52.694Z,37.67
2018-10-17T19:28:55.634Z,38.40
2018-10-17T19:30:58.606Z,38.53
2018-10-17T19:33:01.645Z,37.90
2018-10-17T19:35:06.695Z,38.10
2018-10-17T19:37:09.657Z,41.27
2018-10-17T19:39:13.250Z,40.90
2018-10-17T19:41:16.318Z,38.97
2018-10-17T19:43:19.315Z,36.90
2018-10-17T19:45:22.343Z,35.13
2018-10-17T19:47:25.661Z,34.97
2018-10-17T19:49:28.675Z,33.80
2018-10-17T19:51:31.693Z,34.73
2018-10-17T19:53:36.000Z,36.67
2018-10-17T19:55:39.003Z,39.17
2018-10-17T19:57:42.016Z,39.03
2018-10-17T19:59:45.275Z,40.50
2018-10-17T20:01:48.250Z,37.63
2018-10-17T20:03:51.393Z,39.43
2018-10-17T20:05:54.420Z,36.57
2018-10-17T20:07:57.414Z,37.83
2018-10-17T20:10:00.380Z,37.80
2018-10-17T20:12:05.091Z,40.43
2018-10-17T20:14:08.809Z,42.50
2018-10-17T20:16:11.815Z,41.93
2018-10-17T20:18:15.154Z,46.33
2018-10-17T20:20:18.169Z,58.37
2018-10-17T20:22:21.277Z,48.40
2018-10-17T20:24:24.296Z,45.97
2018-10-17T20:26:27.284Z,42.20
2018-10-17T20:28:30.360Z,43.70
2018-10-17T20:30:35.115Z,40.67
2018-10-17T20:32:38.157Z,39.87
2018-10-17T20:34:41.105Z,39.63
2018-10-17T20:36:44.138Z,35.33
2018-10-17T20:38:47.119Z,40.03
2018-10-17T20:40:50.127Z,41.93
2018-10-17T20:42:53.186Z,48.10
2018-10-17T20:44:56.192Z,44.00
2018-10-17T20:46:59.197Z,42.80
2018-10-17T20:49:02.309Z,44.30
2018-10-17T20:51:06.412Z,43.80
2018-10-17T20:53:11.488Z,42.23
2018-10-17T20:55:14.581Z,41.40
2018-10-17T21:01:50.141Z,41.23
2018-10-17T21:03:53.358Z,39.40
2018-10-17T21:05:56.426Z,39.50
2018-10-17T21:07:59.455Z,39.60
2018-10-17T21:10:02.433Z,38.60
2018-10-17T21:12:07.368Z,38.80
2018-10-17T21:14:10.943Z,37.97
2018-10-17T21:16:13.921Z,39.17
2018-10-17T21:18:16.955Z,38.73
2018-10-17T21:20:19.904Z,38.80
2018-10-17T21:22:22.873Z,35.53
2018-10-17T21:24:26.236Z,38.67
2018-10-17T21:26:29.273Z,38.63
2018-10-17T21:28:32.257Z,37.80
2018-10-17T21:30:36.455Z,35.23
2018-10-17T21:32:39.445Z,38.27
2018-10-17T21:34:42.421Z,40.67
2018-10-17T21:36:45.425Z,39.40
2018-10-17T21:38:48.409Z,36.93
2018-10-17T21:40:51.783Z,42.20
2018-10-17T21:42:55.009Z,39.97
2018-10-17T21:44:58.095Z,43.03
2018-10-17T21:47:01.121Z,41.93
2018-10-17T21:49:05.077Z,45.57
2018-10-17T21:51:08.030Z,42.53
2018-10-17T21:53:11.008Z,45.50
2018-10-17T21:55:14.006Z,48.17
2018-10-17T21:57:16.985Z,49.80
2018-10-17T21:59:19.950Z,41.00
2018-10-17T22:01:23.021Z,38.30
2018-10-17T22:03:26.380Z,38.03
2018-10-17T22:05:29.347Z,41.70
2018-10-17T22:07:32.433Z,40.60
2018-10-17T22:09:36.830Z,37.17
2018-10-17T22:11:39.828Z,34.73
2018-10-17T22:13:42.792Z,33.90
2018-10-17T22:15:45.777Z,32.17
2018-10-17T22:17:48.753Z,35.80
2018-10-17T22:19:51.808Z,38.10
2018-10-17T22:21:54.778Z,33.70
2018-10-17T22:23:57.796Z,32.63
2018-10-17T22:26:00.938Z,31.47
2018-10-17T22:28:05.897Z,32.20
2018-10-17T22:30:09.032Z,33.30
2018-10-17T22:32:12.073Z,32.53
2018-10-17T22:34:15.032Z,36.07
2018-10-17T22:40:50.637Z,33.70
2018-10-17T22:42:53.663Z,39.70
2018-10-17T22:44:56.636Z,38.53
2018-10-17T22:46:59.653Z,38.33
2018-10-17T22:49:04.488Z,38.63
2018-10-17T22:51:07.475Z,35.53
2018-10-17T22:53:10.472Z,36.73
2018-10-17T22:55:13.457Z,40.17
2018-10-17T22:57:16.477Z,42.40
2018-10-17T22:59:19.434Z,44.63
2018-10-17T23:01:22.543Z,44.57
2018-10-17T23:03:25.560Z,45.63
2018-10-17T23:05:28.541Z,46.87
2018-10-17T23:07:31.555Z,48.53
2018-10-17T23:09:35.064Z,50.20
2018-10-17T23:11:38.240Z,44.97
2018-10-17T23:13:41.199Z,46.03
2018-10-17T23:15:44.173Z,45.60
2018-10-17T23:17:47.181Z,43.57
2018-10-17T23:19:50.209Z,43.43
2018-10-17T23:21:53.257Z,40.30
2018-10-17T23:23:56.278Z,38.00
2018-10-17T23:25:59.291Z,37.53
2018-10-17T23:28:02.278Z,38.10
2018-10-17T23:30:07.876Z,36.57
2018-10-17T23:32:10.879Z,40.20
2018-10-17T23:34:13.857Z,40.73
2018-10-17T23:36:16.812Z,39.20
2018-10-17T23:38:19.771Z,37.30
2018-10-17T23:40:22.860Z,41.63
2018-10-17T23:42:25.867Z,40.10
2018-10-17T23:44:28.944Z,38.90
2018-10-17T23:46:31.935Z,37.63
2018-10-17T23:48:36.801Z,34.67
2018-10-17T23:50:39.834Z,38.63
2018-10-17T23:52:42.837Z,37.67
2018-10-17T23:54:45.817Z,38.10
2018-10-17T23:56:48.865Z,34.40
2018-10-17T23:58:51.913Z,35.80
